sensor_id;sensor_type;location;lat;lon;timestamp;pressure;altitude;pressure_sealevel;temperature;humidity
44103;BME280;29769;42.178;24.742;2022-08-23T00:00:58;98919.00;;;20.29;100.00
44103;BME280;29769;42.178;24.742;2022-08-23T00:03:43;98915.41;;;20.30;100.00
44103;BME280;29769;42.178;24.742;2022-08-23T00:06:28;98926.63;;;20.35;100.00
44103;BME280;29769;42.178;24.742;2022-08-23T00:09:12;98927.38;;;20.37;100.00
44103;BME280;29769;42.178;24.742;2022-08-23T00:14:54;98917.56;;;20.23;100.00
44103;BME280;29769;42.178;24.742;2022-08-23T00:17:39;98924.28;;;20.16;100.00
44103;BME280;29769;42.178;24.742;2022-08-23T00:20:25;98922.88;;;20.11;100.00
44103;BME280;29769;42.178;24.742;2022-08-23T00:23:10;98922.09;;;20.09;100.00
44103;BME280;29769;42.178;24.742;2022-08-23T00:25:55;98915.91;;;20.08;100.00
44103;BME280;29769;42.178;24.742;2022-08-23T00:28:39;98919.56;;;20.07;100.00
44103;BME280;29769;42.178;24.742;2022-08-23T00:31:24;98925.75;;;20.08;100.00
44103;BME280;29769;42.178;24.742;2022-08-23T00:34:09;98928.63;;;20.05;100.00
44103;BME280;29769;42.178;24.742;2022-08-23T00:36:54;98927.97;;;20.01;100.00
44103;BME280;29769;42.178;24.742;2022-08-23T00:39:39;98934.16;;;20.02;100.00
44103;BME280;29769;42.178;24.742;2022-08-23T00:48:50;98935.81;;;19.90;100.00
44103;BME280;29769;42.178;24.742;2022-08-23T00:51:46;98952.69;;;19.90;100.00
44103;BME280;29769;42.178;24.742;2022-08-23T00:54:32;98969.56;;;19.91;100.00
44103;BME280;29769;42.178;24.742;2022-08-23T00:57:18;98971.66;;;19.86;100.00
44103;BME280;29769;42.178;24.742;2022-08-23T01:00:06;98976.13;;;19.85;100.00
44103;BME280;29769;42.178;24.742;2022-08-23T01:02:52;98964.81;;;19.82;100.00
44103;BME280;29769;42.178;24.742;2022-08-23T01:05:44;98968.44;;;19.81;100.00
44103;BME280;29769;42.178;24.742;2022-08-23T01:08:30;98965.97;;;19.78;100.00
44103;BME280;29769;42.178;24.742;2022-08-23T01:11:22;98971.31;;;19.78;100.00
44103;BME280;29769;42.178;24.742;2022-08-23T01:14:24;98970.44;;;19.77;100.00
44103;BME280;29769;42.178;24.742;2022-08-23T01:17:24;98962.34;;;19.79;100.00
44103;BME280;29769;42.178;24.742;2022-08-23T01:20:12;98958.72;;;19.80;100.00
44103;BME280;29769;42.178;24.742;2022-08-23T01:22:59;98955.00;;;19.82;100.00
44103;BME280;29769;42.178;24.742;2022-08-23T01:25:45;98961.19;;;19.83;100.00
44103;BME280;29769;42.178;24.742;2022-08-23T01:28:30;98956.94;;;19.80;100.00
44103;BME280;29769;42.178;24.742;2022-08-23T01:31:15;98971.09;;;19.81;100.00
44103;BME280;29769;42.178;24.742;2022-08-23T01:34:04;98966.63;;;19.81;100.00
44103;BME280;29769;42.178;24.742;2022-08-23T01:36:50;98973.69;;;19.82;100.00
44103;BME280;29769;42.178;24.742;2022-08-23T01:39:34;98983.63;;;19.80;100.00
44103;BME280;29769;42.178;24.742;2022-08-23T01:42:21;98988.25;;;19.77;100.00
44103;BME280;29769;42.178;24.742;2022-08-23T01:45:07;98987.31;;;19.78;100.00
44103;BME280;29769;42.178;24.742;2022-08-23T01:47:52;98982.06;;;19.76;100.00
44103;BME280;29769;42.178;24.742;2022-08-23T01:50:37;98978.56;;;19.76;100.00
44103;BME280;29769;42.178;24.742;2022-08-23T01:53:22;98970.66;;;19.74;100.00
44103;BME280;29769;42.178;24.742;2022-08-23T01:56:08;98966.19;;;19.75;100.00
44103;BME280;29769;42.178;24.742;2022-08-23T01:58:54;98962.66;;;19.74;100.00
44103;BME280;29769;42.178;24.742;2022-08-23T02:01:41;98946.94;;;19.70;100.00
44103;BME280;29769;42.178;24.742;2022-08-23T02:04:26;98951.63;;;19.66;100.00
44103;BME280;29769;42.178;24.742;2022-08-23T02:07:10;98958.94;;;19.63;100.00
44103;BME280;29769;42.178;24.742;2022-08-23T02:09:55;98960.66;;;19.64;100.00
44103;BME280;29769;42.178;24.742;2022-08-23T02:12:40;98965.91;;;19.65;100.00
44103;BME280;29769;42.178;24.742;2022-08-23T02:15:29;98967.63;;;19.66;100.00
44103;BME280;29769;42.178;24.742;2022-08-23T02:18:15;98966.75;;;19.66;100.00
44103;BME280;29769;42.178;24.742;2022-08-23T02:21:00;98979.97;;;19.67;100.00
44103;BME280;29769;42.178;24.742;2022-08-23T02:23:45;98979.91;;;19.69;100.00
44103;BME280;29769;42.178;24.742;2022-08-23T02:26:29;98980.75;;;19.69;100.00
44103;BME280;29769;42.178;24.742;2022-08-23T02:29:15;98994.75;;;19.73;100.00
44103;BME280;29769;42.178;24.742;2022-08-23T02:32:02;98998.00;;;19.78;100.00
44103;BME280;29769;42.178;24.742;2022-08-23T02:34:47;98993.50;;;19.78;100.00
44103;BME280;29769;42.178;24.742;2022-08-23T02:37:32;98995.31;;;19.78;100.00
44103;BME280;29769;42.178;24.742;2022-08-23T02:40:17;99021.06;;;19.79;100.00
44103;BME280;29769;42.178;24.742;2022-08-23T02:43:03;99019.03;;;19.82;100.00
44103;BME280;29769;42.178;24.742;2022-08-23T02:45:49;99009.31;;;19.81;100.00
44103;BME280;29769;42.178;24.742;2022-08-23T02:48:35;99003.97;;;19.81;100.00
44103;BME280;29769;42.178;24.742;2022-08-23T02:51:22;99004.09;;;19.80;100.00
44103;BME280;29769;42.178;24.742;2022-08-23T02:54:06;99003.13;;;19.81;100.00
44103;BME280;29769;42.178;24.742;2022-08-23T02:56:51;99005.91;;;19.79;100.00
44103;BME280;29769;42.178;24.742;2022-08-23T02:59:36;98999.81;;;19.77;100.00
44103;BME280;29769;42.178;24.742;2022-08-23T03:02:23;99000.09;;;19.73;100.00
44103;BME280;29769;42.178;24.742;2022-08-23T03:05:07;99001.03;;;19.72;100.00
44103;BME280;29769;42.178;24.742;2022-08-23T03:07:52;99009.16;;;19.70;100.00
44103;BME280;29769;42.178;24.742;2022-08-23T03:10:42;99010.03;;;19.71;100.00
44103;BME280;29769;42.178;24.742;2022-08-23T03:13:27;99007.34;;;19.71;100.00
44103;BME280;29769;42.178;24.742;2022-08-23T03:16:13;99016.31;;;19.70;100.00
44103;BME280;29769;42.178;24.742;2022-08-23T03:19:03;99014.59;;;19.69;100.00
44103;BME280;29769;42.178;24.742;2022-08-23T03:21:47;99024.50;;;19.67;100.00
44103;BME280;29769;42.178;24.742;2022-08-23T03:24:35;99015.72;;;19.65;100.00
44103;BME280;29769;42.178;24.742;2022-08-23T03:27:19;99030.78;;;19.66;100.00
44103;BME280;29769;42.178;24.742;2022-08-23T03:30:05;99030.78;;;19.66;100.00
44103;BME280;29769;42.178;24.742;2022-08-23T03:32:51;99031.66;;;19.66;100.00
44103;BME280;29769;42.178;24.742;2022-08-23T03:35:35;99032.88;;;19.61;100.00
44103;BME280;29769;42.178;24.742;2022-08-23T03:38:21;99022.88;;;19.64;100.00
44103;BME280;29769;42.178;24.742;2022-08-23T03:41:07;99037.00;;;19.66;100.00
44103;BME280;29769;42.178;24.742;2022-08-23T03:43:52;99034.50;;;19.63;100.00
44103;BME280;29769;42.178;24.742;2022-08-23T03:46:37;99026.41;;;19.65;100.00
44103;BME280;29769;42.178;24.742;2022-08-23T03:49:22;99020.22;;;19.64;100.00
44103;BME280;29769;42.178;24.742;2022-08-23T03:52:11;99017.44;;;19.66;100.00
44103;BME280;29769;42.178;24.742;2022-08-23T03:54:56;99025.63;;;19.63;100.00
44103;BME280;29769;42.178;24.742;2022-08-23T03:57:42;99011.53;;;19.61;100.00
44103;BME280;29769;42.178;24.742;2022-08-23T04:00:27;99012.88;;;19.53;100.00
44103;BME280;29769;42.178;24.742;2022-08-23T04:03:13;99014.78;;;19.51;100.00
44103;BME280;29769;42.178;24.742;2022-08-23T04:06:27;99019.06;;;19.54;100.00
44103;BME280;29769;42.178;24.742;2022-08-23T04:09:13;99024.41;;;19.54;100.00
44103;BME280;29769;42.178;24.742;2022-08-23T04:11:58;99023.38;;;19.57;100.00
44103;BME280;29769;42.178;24.742;2022-08-23T04:14:43;99022.50;;;19.56;100.00
44103;BME280;29769;42.178;24.742;2022-08-23T04:17:29;99029.56;;;19.57;100.00
44103;BME280;29769;42.178;24.742;2022-08-23T04:20:13;99023.25;;;19.58;100.00
44103;BME280;29769;42.178;24.742;2022-08-23T04:23:07;99039.53;;;19.68;100.00
44103;BME280;29769;42.178;24.742;2022-08-23T04:26:05;99033.75;;;19.75;100.00
44103;BME280;29769;42.178;24.742;2022-08-23T04:28:51;99037.66;;;19.84;100.00
44103;BME280;29769;42.178;24.742;2022-08-23T04:31:36;99039.81;;;19.91;100.00
44103;BME280;29769;42.178;24.742;2022-08-23T04:34:22;99033.97;;;19.99;100.00
44103;BME280;29769;42.178;24.742;2022-08-23T04:37:07;99039.88;;;20.04;100.00
44103;BME280;29769;42.178;24.742;2022-08-23T04:39:52;99038.34;;;20.14;100.00
44103;BME280;29769;42.178;24.742;2022-08-23T04:42:59;99038.25;;;20.30;100.00
44103;BME280;29769;42.178;24.742;2022-08-23T04:45:44;99037.94;;;20.34;100.00
44103;BME280;29769;42.178;24.742;2022-08-23T04:48:42;99037.53;;;20.40;100.00
44103;BME280;29769;42.178;24.742;2022-08-23T04:51:26;99045.16;;;20.47;100.00
44103;BME280;29769;42.178;24.742;2022-08-23T04:54:11;99039.44;;;20.65;100.00
44103;BME280;29769;42.178;24.742;2022-08-23T04:56:59;99043.56;;;20.83;100.00
44103;BME280;29769;42.178;24.742;2022-08-23T04:59:44;99038.91;;;21.12;100.00
44103;BME280;29769;42.178;24.742;2022-08-23T05:02:29;99036.38;;;21.36;100.00
44103;BME280;29769;42.178;24.742;2022-08-23T05:05:15;99037.88;;;21.65;100.00
44103;BME280;29769;42.178;24.742;2022-08-23T05:08:02;99039.78;;;22.01;100.00
44103;BME280;29769;42.178;24.742;2022-08-23T05:10:47;99040.16;;;22.21;100.00
44103;BME280;29769;42.178;24.742;2022-08-23T05:13:32;99041.50;;;22.39;100.00
44103;BME280;29769;42.178;24.742;2022-08-23T05:16:17;99039.38;;;22.55;100.00
44103;BME280;29769;42.178;24.742;2022-08-23T05:19:17;99042.34;;;22.87;100.00
44103;BME280;29769;42.178;24.742;2022-08-23T05:22:04;99046.84;;;22.75;100.00
44103;BME280;29769;42.178;24.742;2022-08-23T05:25:09;99045.16;;;22.85;100.00
44103;BME280;29769;42.178;24.742;2022-08-23T05:27:57;99041.16;;;22.43;100.00
44103;BME280;29769;42.178;24.742;2022-08-23T05:30:41;99035.50;;;22.35;100.00
44103;BME280;29769;42.178;24.742;2022-08-23T05:33:26;99031.16;;;22.45;100.00
44103;BME280;29769;42.178;24.742;2022-08-23T05:36:12;99034.97;;;22.54;100.00
44103;BME280;29769;42.178;24.742;2022-08-23T05:38:56;99029.66;;;22.78;100.00
44103;BME280;29769;42.178;24.742;2022-08-23T05:41:42;99024.56;;;22.86;100.00
44103;BME280;29769;42.178;24.742;2022-08-23T05:44:28;99027.09;;;23.11;100.00
44103;BME280;29769;42.178;24.742;2022-08-23T05:47:13;99030.06;;;23.41;100.00
44103;BME280;29769;42.178;24.742;2022-08-23T05:50:08;99030.22;;;23.62;100.00
44103;BME280;29769;42.178;24.742;2022-08-23T05:52:55;99025.47;;;23.99;100.00
44103;BME280;29769;42.178;24.742;2022-08-23T05:55:40;99029.84;;;24.33;100.00
44103;BME280;29769;42.178;24.742;2022-08-23T05:58:35;99029.19;;;24.52;100.00
44103;BME280;29769;42.178;24.742;2022-08-23T06:01:20;99024.28;;;24.57;100.00
44103;BME280;29769;42.178;24.742;2022-08-23T06:04:06;99031.25;;;24.80;100.00
44103;BME280;29769;42.178;24.742;2022-08-23T06:06:51;99020.84;;;24.66;100.00
44103;BME280;29769;42.178;24.742;2022-08-23T06:09:37;99028.97;;;24.76;100.00
44103;BME280;29769;42.178;24.742;2022-08-23T06:12:22;99027.97;;;24.88;100.00
44103;BME280;29769;42.178;24.742;2022-08-23T06:15:07;99038.28;;;25.45;100.00
44103;BME280;29769;42.178;24.742;2022-08-23T06:17:52;99042.25;;;24.57;100.00
44103;BME280;29769;42.178;24.742;2022-08-23T06:20:36;99048.94;;;25.05;100.00
44103;BME280;29769;42.178;24.742;2022-08-23T06:23:22;99049.84;;;25.36;100.00
44103;BME280;29769;42.178;24.742;2022-08-23T06:28:55;99051.03;;;25.22;100.00
44103;BME280;29769;42.178;24.742;2022-08-23T06:31:41;99047.81;;;25.49;100.00
44103;BME280;29769;42.178;24.742;2022-08-23T06:34:39;99055.28;;;25.57;100.00
44103;BME280;29769;42.178;24.742;2022-08-23T06:37:24;99066.00;;;25.78;100.00
44103;BME280;29769;42.178;24.742;2022-08-23T06:40:24;99060.28;;;25.50;100.00
44103;BME280;29769;42.178;24.742;2022-08-23T06:43:17;99063.03;;;25.18;100.00
44103;BME280;29769;42.178;24.742;2022-08-23T06:46:11;99076.31;;;25.31;100.00
44103;BME280;29769;42.178;24.742;2022-08-23T06:48:56;99071.44;;;25.04;100.00
44103;BME280;29769;42.178;24.742;2022-08-23T06:51:44;99069.47;;;25.27;100.00
44103;BME280;29769;42.178;24.742;2022-08-23T06:54:38;99075.97;;;25.04;100.00
44103;BME280;29769;42.178;24.742;2022-08-23T06:57:48;99078.13;;;24.78;100.00
44103;BME280;29769;42.178;24.742;2022-08-23T07:01:13;99088.81;;;25.00;100.00
44103;BME280;29769;42.178;24.742;2022-08-23T07:04:25;99095.19;;;24.99;100.00
44103;BME280;29769;42.178;24.742;2022-08-23T07:07:45;99085.94;;;24.92;100.00
44103;BME280;29769;42.178;24.742;2022-08-23T07:10:31;99091.44;;;24.91;100.00
44103;BME280;29769;42.178;24.742;2022-08-23T07:13:17;99055.22;;;24.95;100.00
44103;BME280;29769;42.178;24.742;2022-08-23T07:16:02;99092.00;;;25.26;100.00
44103;BME280;29769;42.178;24.742;2022-08-23T07:18:49;99097.34;;;25.37;100.00
44103;BME280;29769;42.178;24.742;2022-08-23T07:21:36;99106.34;;;25.47;100.00
44103;BME280;29769;42.178;24.742;2022-08-23T07:24:21;99101.31;;;26.05;100.00
44103;BME280;29769;42.178;24.742;2022-08-23T07:27:07;99102.34;;;26.53;100.00
44103;BME280;29769;42.178;24.742;2022-08-23T07:30:02;99105.72;;;26.86;100.00
44103;BME280;29769;42.178;24.742;2022-08-23T07:32:48;99112.56;;;27.48;100.00
44103;BME280;29769;42.178;24.742;2022-08-23T07:35:58;99121.00;;;27.91;100.00
44103;BME280;29769;42.178;24.742;2022-08-23T07:38:43;99113.47;;;27.85;100.00
44103;BME280;29769;42.178;24.742;2022-08-23T07:41:29;99111.56;;;27.10;100.00
44103;BME280;29769;42.178;24.742;2022-08-23T07:44:15;99114.13;;;27.02;100.00
44103;BME280;29769;42.178;24.742;2022-08-23T07:47:02;99108.44;;;26.46;100.00
44103;BME280;29769;42.178;24.742;2022-08-23T07:49:47;99111.13;;;27.15;100.00
44103;BME280;29769;42.178;24.742;2022-08-23T07:52:32;99098.47;;;27.54;100.00
44103;BME280;29769;42.178;24.742;2022-08-23T07:55:16;99104.16;;;27.31;100.00
44103;BME280;29769;42.178;24.742;2022-08-23T07:58:36;99109.00;;;27.66;100.00
44103;BME280;29769;42.178;24.742;2022-08-23T08:01:56;99111.63;;;28.32;100.00
44103;BME280;29769;42.178;24.742;2022-08-23T08:04:42;99113.91;;;29.09;97.09
44103;BME280;29769;42.178;24.742;2022-08-23T08:07:27;99122.50;;;29.40;93.16
44103;BME280;29769;42.178;24.742;2022-08-23T08:10:15;99129.78;;;29.83;86.57
44103;BME280;29769;42.178;24.742;2022-08-23T08:13:00;99126.91;;;30.62;80.37
44103;BME280;29769;42.178;24.742;2022-08-23T08:15:44;99131.13;;;31.06;72.11
44103;BME280;29769;42.178;24.742;2022-08-23T08:18:31;99121.13;;;31.39;67.31
44103;BME280;29769;42.178;24.742;2022-08-23T08:21:35;99126.53;;;31.07;66.62
44103;BME280;29769;42.178;24.742;2022-08-23T08:24:26;99131.25;;;29.95;68.16
44103;BME280;29769;42.178;24.742;2022-08-23T08:27:16;99131.78;;;29.98;69.71
44103;BME280;29769;42.178;24.742;2022-08-23T08:30:02;99114.13;;;30.54;66.39
44103;BME280;29769;42.178;24.742;2022-08-23T08:32:47;99114.50;;;30.67;65.85
44103;BME280;29769;42.178;24.742;2022-08-23T08:35:33;99118.78;;;31.60;63.60
44103;BME280;29769;42.178;24.742;2022-08-23T08:38:18;99113.47;;;31.91;58.89
44103;BME280;29769;42.178;24.742;2022-08-23T08:44:02;99103.16;;;34.09;49.42
44103;BME280;29769;42.178;24.742;2022-08-23T08:46:52;99102.53;;;33.01;51.74
44103;BME280;29769;42.178;24.742;2022-08-23T08:49:42;99103.41;;;33.85;50.90
44103;BME280;29769;42.178;24.742;2022-08-23T08:52:32;99106.44;;;33.90;50.28
44103;BME280;29769;42.178;24.742;2022-08-23T08:55:24;99110.47;;;33.94;49.85
44103;BME280;29769;42.178;24.742;2022-08-23T08:58:13;99101.66;;;34.07;49.75
44103;BME280;29769;42.178;24.742;2022-08-23T09:01:00;99104.47;;;34.87;48.70
44103;BME280;29769;42.178;24.742;2022-08-23T09:03:45;99099.06;;;33.53;51.18
44103;BME280;29769;42.178;24.742;2022-08-23T09:18:18;99086.44;;;31.98;53.88
44103;BME280;29769;42.178;24.742;2022-08-23T09:21:04;99124.19;;;31.76;55.92
44103;BME280;29769;42.178;24.742;2022-08-23T09:23:50;99126.00;;;32.08;55.97
44103;BME280;29769;42.178;24.742;2022-08-23T09:26:44;99121.63;;;31.91;55.90
44103;BME280;29769;42.178;24.742;2022-08-23T09:29:33;99124.41;;;32.46;55.01
44103;BME280;29769;42.178;24.742;2022-08-23T09:32:31;99118.03;;;32.70;55.47
44103;BME280;29769;42.178;24.742;2022-08-23T09:35:26;99117.19;;;33.00;53.07
44103;BME280;29769;42.178;24.742;2022-08-23T09:38:22;99114.06;;;33.12;52.75
44103;BME280;29769;42.178;24.742;2022-08-23T09:41:15;99101.31;;;33.72;51.15
44103;BME280;29769;42.178;24.742;2022-08-23T09:44:05;99095.59;;;33.82;50.08
44103;BME280;29769;42.178;24.742;2022-08-23T09:46:50;99094.97;;;34.83;48.88
44103;BME280;29769;42.178;24.742;2022-08-23T09:49:48;99100.00;;;35.85;46.17
44103;BME280;29769;42.178;24.742;2022-08-23T09:52:35;99087.78;;;36.97;42.97
44103;BME280;29769;42.178;24.742;2022-08-23T09:58:34;99092.13;;;39.21;36.90
44103;BME280;29769;42.178;24.742;2022-08-23T10:01:23;99087.25;;;40.28;34.69
44103;BME280;29769;42.178;24.742;2022-08-23T10:04:24;99088.31;;;41.12;32.80
44103;BME280;29769;42.178;24.742;2022-08-23T10:07:28;99091.16;;;42.11;31.54
44103;BME280;29769;42.178;24.742;2022-08-23T10:10:31;99099.84;;;42.38;30.39
44103;BME280;29769;42.178;24.742;2022-08-23T10:13:21;99095.19;;;41.62;30.88
44103;BME280;29769;42.178;24.742;2022-08-23T10:22:02;99081.78;;;41.24;31.06
44103;BME280;29769;42.178;24.742;2022-08-23T10:28:14;99077.69;;;41.15;31.29
44103;BME280;29769;42.178;24.742;2022-08-23T10:31:32;99075.44;;;42.24;30.05
44103;BME280;29769;42.178;24.742;2022-08-23T10:34:23;99074.09;;;42.89;28.92
44103;BME280;29769;42.178;24.742;2022-08-23T10:43:46;99075.06;;;44.23;26.91
44103;BME280;29769;42.178;24.742;2022-08-23T10:46:36;99073.94;;;43.69;27.00
44103;BME280;29769;42.178;24.742;2022-08-23T10:49:22;99076.47;;;42.57;28.09
44103;BME280;29769;42.178;24.742;2022-08-23T10:52:12;99069.97;;;42.64;28.08
44103;BME280;29769;42.178;24.742;2022-08-23T10:54:59;99079.78;;;41.96;29.36
44103;BME280;29769;42.178;24.742;2022-08-23T10:58:00;99078.91;;;41.72;28.94
44103;BME280;29769;42.178;24.742;2022-08-23T11:00:47;99073.75;;;42.23;28.46
44103;BME280;29769;42.178;24.742;2022-08-23T11:07:19;99070.31;;;43.07;27.82
44103;BME280;29769;42.178;24.742;2022-08-23T11:18:43;99045.03;;;42.75;27.55
44103;BME280;29769;42.178;24.742;2022-08-23T11:24:30;99050.72;;;44.25;26.30
44103;BME280;29769;42.178;24.742;2022-08-23T11:33:35;99047.31;;;45.37;24.57
44103;BME280;29769;42.178;24.742;2022-08-23T11:36:25;99053.03;;;45.89;24.67
44103;BME280;29769;42.178;24.742;2022-08-23T11:39:13;99047.06;;;45.76;24.45
44103;BME280;29769;42.178;24.742;2022-08-23T11:42:00;99042.75;;;46.32;24.05
44103;BME280;29769;42.178;24.742;2022-08-23T11:44:49;99040.25;;;46.98;23.19
44103;BME280;29769;42.178;24.742;2022-08-23T11:47:39;99037.03;;;46.12;23.91
44103;BME280;29769;42.178;24.742;2022-08-23T11:50:28;99038.28;;;46.26;23.20
44103;BME280;29769;42.178;24.742;2022-08-23T11:59:18;99010.59;;;44.77;24.88
44103;BME280;29769;42.178;24.742;2022-08-23T12:11:02;98986.72;;;42.25;27.81
44103;BME280;29769;42.178;24.742;2022-08-23T12:13:54;98975.00;;;41.37;27.98
44103;BME280;29769;42.178;24.742;2022-08-23T12:16:40;98979.69;;;40.95;29.56
44103;BME280;29769;42.178;24.742;2022-08-23T12:19:35;98974.63;;;41.21;29.05
44103;BME280;29769;42.178;24.742;2022-08-23T12:22:22;98963.75;;;40.97;30.02
44103;BME280;29769;42.178;24.742;2022-08-23T12:25:07;98960.06;;;40.61;30.15
44103;BME280;29769;42.178;24.742;2022-08-23T12:27:54;98949.91;;;41.15;29.44
44103;BME280;29769;42.178;24.742;2022-08-23T12:30:48;98942.38;;;41.45;28.55
44103;BME280;29769;42.178;24.742;2022-08-23T12:36:47;98937.94;;;42.59;27.22
44103;BME280;29769;42.178;24.742;2022-08-23T12:39:39;98951.88;;;42.64;27.50
44103;BME280;29769;42.178;24.742;2022-08-23T12:42:30;98951.78;;;42.59;26.74
44103;BME280;29769;42.178;24.742;2022-08-23T12:45:17;98948.41;;;42.57;26.52
44103;BME280;29769;42.178;24.742;2022-08-23T12:48:05;98952.16;;;43.41;25.76
44103;BME280;29769;42.178;24.742;2022-08-23T12:50:57;98950.00;;;43.81;25.28
44103;BME280;29769;42.178;24.742;2022-08-23T12:53:43;98951.25;;;43.19;26.17
44103;BME280;29769;42.178;24.742;2022-08-23T12:56:28;98939.34;;;42.73;26.88
44103;BME280;29769;42.178;24.742;2022-08-23T12:59:35;98939.97;;;42.35;26.71
44103;BME280;29769;42.178;24.742;2022-08-23T13:02:23;98938.31;;;42.23;27.36
44103;BME280;29769;42.178;24.742;2022-08-23T13:05:11;98936.72;;;41.40;28.46
44103;BME280;29769;42.178;24.742;2022-08-23T13:07:56;98933.50;;;40.90;28.74
44103;BME280;29769;42.178;24.742;2022-08-23T13:10:43;98944.72;;;39.99;29.88
44103;BME280;29769;42.178;24.742;2022-08-23T13:13:28;98954.03;;;39.80;31.33
44103;BME280;29769;42.178;24.742;2022-08-23T13:19:17;98951.81;;;39.21;31.34
44103;BME280;29769;42.178;24.742;2022-08-23T13:27:51;98944.13;;;39.04;31.28
44103;BME280;29769;42.178;24.742;2022-08-23T13:30:36;98948.63;;;39.48;30.94
44103;BME280;29769;42.178;24.742;2022-08-23T13:33:21;98939.47;;;39.73;30.93
44103;BME280;29769;42.178;24.742;2022-08-23T13:36:08;98937.72;;;39.60;30.26
44103;BME280;29769;42.178;24.742;2022-08-23T13:38:53;98931.88;;;38.38;32.30
44103;BME280;29769;42.178;24.742;2022-08-23T13:41:38;98931.03;;;38.75;32.43
44103;BME280;29769;42.178;24.742;2022-08-23T13:44:26;98931.78;;;38.89;32.22
44103;BME280;29769;42.178;24.742;2022-08-23T13:47:19;98922.78;;;38.31;32.35
44103;BME280;29769;42.178;24.742;2022-08-23T13:50:10;98922.66;;;38.19;33.23
44103;BME280;29769;42.178;24.742;2022-08-23T13:52:57;98927.19;;;37.87;33.42
44103;BME280;29769;42.178;24.742;2022-08-23T13:55:46;98922.09;;;38.04;33.82
44103;BME280;29769;42.178;24.742;2022-08-23T13:58:32;98921.84;;;38.12;33.71
44103;BME280;29769;42.178;24.742;2022-08-23T14:01:17;98919.63;;;37.82;34.32
44103;BME280;29769;42.178;24.742;2022-08-23T14:04:02;98923.81;;;37.92;34.37
44103;BME280;29769;42.178;24.742;2022-08-23T14:06:46;98919.22;;;37.72;33.81
44103;BME280;29769;42.178;24.742;2022-08-23T14:09:34;98916.19;;;38.00;33.28
44103;BME280;29769;42.178;24.742;2022-08-23T14:12:20;98930.03;;;38.25;33.70
44103;BME280;29769;42.178;24.742;2022-08-23T14:15:06;98929.78;;;38.26;33.19
44103;BME280;29769;42.178;24.742;2022-08-23T14:17:51;98932.88;;;38.81;31.85
44103;BME280;29769;42.178;24.742;2022-08-23T14:20:36;98940.00;;;38.57;32.24
44103;BME280;29769;42.178;24.742;2022-08-23T14:23:21;98932.53;;;38.33;32.69
44103;BME280;29769;42.178;24.742;2022-08-23T14:26:06;98928.47;;;36.46;38.50
44103;BME280;29769;42.178;24.742;2022-08-23T14:28:51;98926.06;;;34.00;47.57
44103;BME280;29769;42.178;24.742;2022-08-23T14:31:36;98920.81;;;33.02;51.55
44103;BME280;29769;42.178;24.742;2022-08-23T14:34:20;98912.97;;;32.61;53.42
44103;BME280;29769;42.178;24.742;2022-08-23T14:37:05;98902.97;;;32.54;54.61
44103;BME280;29769;42.178;24.742;2022-08-23T14:39:50;98915.06;;;31.51;58.60
44103;BME280;29769;42.178;24.742;2022-08-23T14:42:35;98913.63;;;30.83;62.27
44103;BME280;29769;42.178;24.742;2022-08-23T14:45:20;98918.47;;;30.31;66.35
44103;BME280;29769;42.178;24.742;2022-08-23T14:48:05;98916.88;;;30.04;68.55
44103;BME280;29769;42.178;24.742;2022-08-23T14:50:50;98902.03;;;29.75;71.17
44103;BME280;29769;42.178;24.742;2022-08-23T14:53:34;98909.88;;;29.26;74.96
44103;BME280;29769;42.178;24.742;2022-08-23T14:56:20;98901.06;;;28.98;77.91
44103;BME280;29769;42.178;24.742;2022-08-23T14:59:05;98914.25;;;28.76;79.18
44103;BME280;29769;42.178;24.742;2022-08-23T15:01:50;98911.03;;;28.72;80.01
44103;BME280;29769;42.178;24.742;2022-08-23T15:04:36;98921.13;;;28.70;81.20
44103;BME280;29769;42.178;24.742;2022-08-23T15:07:20;98926.25;;;28.73;81.74
44103;BME280;29769;42.178;24.742;2022-08-23T15:10:06;98923.06;;;28.60;82.44
44103;BME280;29769;42.178;24.742;2022-08-23T15:12:51;98925.06;;;28.58;83.12
44103;BME280;29769;42.178;24.742;2022-08-23T15:15:35;98931.34;;;28.58;82.03
44103;BME280;29769;42.178;24.742;2022-08-23T15:18:20;98937.16;;;28.46;82.79
44103;BME280;29769;42.178;24.742;2022-08-23T15:21:05;98934.97;;;28.32;84.98
44103;BME280;29769;42.178;24.742;2022-08-23T15:23:49;98922.53;;;28.21;86.30
44103;BME280;29769;42.178;24.742;2022-08-23T15:26:34;98928.59;;;28.05;88.19
44103;BME280;29769;42.178;24.742;2022-08-23T15:29:19;98931.19;;;27.97;89.60
44103;BME280;29769;42.178;24.742;2022-08-23T15:32:04;98944.19;;;27.94;90.02
44103;BME280;29769;42.178;24.742;2022-08-23T15:34:48;98933.81;;;27.89;89.00
44103;BME280;29769;42.178;24.742;2022-08-23T15:37:34;98939.75;;;27.65;95.62
44103;BME280;29769;42.178;24.742;2022-08-23T15:40:19;98940.50;;;27.58;99.80
44103;BME280;29769;42.178;24.742;2022-08-23T15:43:04;98924.13;;;27.13;100.00
44103;BME280;29769;42.178;24.742;2022-08-23T15:45:49;98945.63;;;26.85;100.00
44103;BME280;29769;42.178;24.742;2022-08-23T15:48:35;98939.50;;;26.83;100.00
44103;BME280;29769;42.178;24.742;2022-08-23T15:51:22;98928.88;;;26.72;100.00
44103;BME280;29769;42.178;24.742;2022-08-23T15:54:07;98927.03;;;26.73;100.00
44103;BME280;29769;42.178;24.742;2022-08-23T15:56:52;98932.59;;;26.62;100.00
44103;BME280;29769;42.178;24.742;2022-08-23T15:59:37;98930.00;;;26.50;100.00
44103;BME280;29769;42.178;24.742;2022-08-23T16:02:22;98925.78;;;26.48;100.00
44103;BME280;29769;42.178;24.742;2022-08-23T16:05:06;98931.00;;;26.30;100.00
44103;BME280;29769;42.178;24.742;2022-08-23T16:07:52;98911.13;;;26.22;100.00